createdAt,value
2019-03-28T00:01:37.013Z,3.70
2019-03-28T00:04:06.313Z,3.70
2019-03-28T00:06:35.616Z,3.70
2019-03-28T00:09:07.821Z,3.80
2019-03-28T00:11:37.901Z,3.70
2019-03-28T00:14:07.202Z,3.80
2019-03-28T00:16:39.267Z,3.90
2019-03-28T00:19:08.875Z,3.90
2019-03-28T00:21:38.174Z,3.90
2019-03-28T00:24:09.011Z,4.00
2019-03-28T00:26:37.404Z,4.00
2019-03-28T00:29:06.692Z,4.00
2019-03-28T00:31:35.992Z,4.00
2019-03-28T00:34:05.301Z,4.00
2019-03-28T00:36:34.591Z,4.00
2019-03-28T00:39:04.806Z,4.00
2019-03-28T00:41:35.352Z,4.00
2019-03-28T00:44:04.646Z,4.00
2019-03-28T00:46:33.944Z,4.00
2019-03-28T00:49:03.246Z,4.00
2019-03-28T00:51:32.237Z,4.00
2019-03-28T00:54:01.538Z,4.00
2019-03-28T00:56:44.869Z,3.90
2019-03-28T00:59:01.674Z,3.90
2019-03-28T01:01:31.138Z,3.90
2019-03-28T01:04:00.889Z,3.90
2019-03-28T01:06:30.190Z,3.90
2019-03-28T01:08:59.491Z,3.90
2019-03-28T01:11:28.791Z,3.90
2019-03-28T01:13:58.094Z,3.80
2019-03-28T01:16:27.392Z,3.70
2019-03-28T01:18:56.694Z,3.60
2019-03-28T01:21:25.993Z,3.50
2019-03-28T01:23:55.293Z,3.30
2019-03-28T01:26:24.593Z,3.10
2019-03-28T01:28:53.894Z,2.90
2019-03-28T01:31:23.194Z,2.70
2019-03-28T01:33:52.494Z,2.50
2019-03-28T01:36:21.807Z,2.30
2019-03-28T01:38:51.099Z,2.10
2019-03-28T01:41:20.397Z,2.00
2019-03-28T01:43:49.696Z,1.90
2019-03-28T01:46:18.996Z,1.80
2019-03-28T01:48:48.298Z,1.60
2019-03-28T01:51:17.598Z,1.50
2019-03-28T01:53:46.898Z,1.50
2019-03-28T01:56:16.198Z,1.40
2019-03-28T01:58:45.192Z,1.30
2019-03-28T02:01:14.491Z,1.20
2019-03-28T02:03:43.793Z,1.10
2019-03-28T02:06:13.098Z,1.00
2019-03-28T02:09:02.982Z,0.90
2019-03-28T02:11:32.278Z,0.90
2019-03-28T02:14:01.579Z,0.90
2019-03-28T02:16:30.879Z,0.90
2019-03-28T02:19:00.183Z,0.80
2019-03-28T02:21:29.479Z,0.70
2019-03-28T02:23:58.779Z,0.70
2019-03-28T02:26:28.079Z,0.70
2019-03-28T02:28:57.385Z,0.60
2019-03-28T02:31:26.683Z,0.60
2019-03-28T02:33:55.982Z,0.60
2019-03-28T02:36:25.282Z,0.60
2019-03-28T02:38:54.583Z,0.60
2019-03-28T02:41:23.883Z,0.60
2019-03-28T02:43:52.927Z,0.50
2019-03-28T02:46:22.607Z,0.40
2019-03-28T02:48:53.769Z,0.30
2019-03-28T02:51:22.927Z,0.20
2019-03-28T02:53:52.230Z,0.10
2019-03-28T02:56:21.527Z,0.10
2019-03-28T02:58:50.829Z,0.10
2019-03-28T03:01:19.882Z,0.00
2019-03-28T03:03:49.121Z,0.00
2019-03-28T03:06:18.422Z,-0.10
2019-03-28T03:08:47.723Z,-0.10
2019-03-28T03:11:17.022Z,-0.10
2019-03-28T03:13:46.322Z,-0.10
2019-03-28T03:16:15.625Z,-0.10
2019-03-28T03:18:44.926Z,-0.20
2019-03-28T03:21:14.226Z,-0.30
2019-03-28T03:23:43.526Z,-0.30
2019-03-28T03:26:12.829Z,-0.30
2019-03-28T03:28:42.125Z,-0.40
2019-03-28T03:31:11.427Z,-0.40
2019-03-28T03:33:40.730Z,-0.40
2019-03-28T03:36:09.777Z,-0.40
2019-03-28T03:38:38.770Z,-0.40
2019-03-28T03:41:08.015Z,-0.50
2019-03-28T03:43:37.314Z,-0.50
2019-03-28T03:46:06.615Z,-0.50
2019-03-28T03:48:35.916Z,-0.50
2019-03-28T03:51:05.215Z,-0.50
2019-03-28T03:53:34.518Z,-0.50
2019-03-28T03:56:03.820Z,-0.50
2019-03-28T03:58:33.117Z,-0.60
2019-03-28T04:01:02.476Z,-0.60
2019-03-28T04:03:31.720Z,-0.60
2019-03-28T04:06:01.020Z,-0.60
2019-03-28T04:08:30.318Z,-0.70
2019-03-28T04:10:59.632Z,-0.70
2019-03-28T04:13:28.929Z,-0.70
2019-03-28T04:15:58.226Z,-0.70
2019-03-28T04:18:27.519Z,-0.60
2019-03-28T04:20:56.826Z,-0.50
2019-03-28T04:23:25.871Z,-0.40
2019-03-28T04:25:54.860Z,-0.10
2019-03-28T04:28:31.417Z,0.20
2019-03-28T04:30:54.646Z,0.50
2019-03-28T04:33:42.984Z,0.70
2019-03-28T04:36:12.071Z,0.80
2019-03-28T04:38:41.277Z,1.00
2019-03-28T04:41:10.581Z,1.10
2019-03-28T04:43:39.880Z,1.10
2019-03-28T04:46:09.177Z,1.20
2019-03-28T04:48:38.479Z,1.30
2019-03-28T04:51:07.782Z,1.30
2019-03-28T04:53:37.512Z,1.30
2019-03-28T04:56:06.995Z,1.30
2019-03-28T04:58:44.482Z,1.40
2019-03-28T05:01:06.209Z,1.40
2019-03-28T05:03:35.509Z,1.40
2019-03-28T05:06:04.812Z,1.40
2019-03-28T05:08:34.113Z,1.50
2019-03-28T05:11:03.410Z,1.50
2019-03-28T05:13:32.716Z,1.50
2019-03-28T05:16:02.012Z,1.50
2019-03-28T05:18:32.215Z,1.50
2019-03-28T05:21:01.534Z,1.50
2019-03-28T05:23:30.835Z,1.50
2019-03-28T05:26:00.135Z,1.60
2019-03-28T05:28:29.436Z,1.60
2019-03-28T05:30:58.739Z,1.70
2019-03-28T05:33:31.418Z,1.70
2019-03-28T05:36:00.717Z,1.60
2019-03-28T05:38:31.200Z,1.70
2019-03-28T05:41:00.238Z,1.80
2019-03-28T05:43:29.539Z,1.90
2019-03-28T05:45:58.843Z,2.00
2019-03-28T05:48:29.370Z,2.10
2019-03-28T05:51:01.434Z,2.10
2019-03-28T05:53:33.501Z,2.10
2019-03-28T05:56:02.800Z,2.10
2019-03-28T05:58:34.560Z,2.10
2019-03-28T06:01:03.860Z,2.10
2019-03-28T06:03:33.159Z,2.30
2019-03-28T06:06:02.458Z,2.40
2019-03-28T06:08:31.761Z,2.40
2019-03-28T06:11:01.061Z,2.50
2019-03-28T06:13:33.797Z,2.60
2019-03-28T06:16:03.962Z,2.80
2019-03-28T06:18:33.261Z,2.80
2019-03-28T06:21:02.562Z,2.90
2019-03-28T06:23:31.872Z,3.00
2019-03-28T06:26:01.163Z,3.00
2019-03-28T06:28:32.000Z,3.00
2019-03-28T06:31:00.377Z,3.00
2019-03-28T06:33:29.679Z,3.00
2019-03-28T06:36:02.007Z,3.00
2019-03-28T06:38:29.510Z,3.10
2019-03-28T06:40:58.809Z,3.10
2019-03-28T06:43:28.109Z,3.20
2019-03-28T06:45:57.410Z,3.30
2019-03-28T06:48:26.711Z,3.20
2019-03-28T06:50:56.011Z,3.20
2019-03-28T06:53:25.310Z,3.20
2019-03-28T06:55:54.612Z,3.20
2019-03-28T06:58:23.913Z,3.20
2019-03-28T07:00:53.212Z,3.20
2019-03-28T07:03:22.515Z,3.20
2019-03-28T07:05:51.834Z,3.30
2019-03-28T07:08:21.114Z,3.30
2019-03-28T07:10:50.416Z,3.40
2019-03-28T07:13:19.715Z,3.50
2019-03-28T07:15:49.015Z,3.60
2019-03-28T07:18:18.315Z,3.60
2019-03-28T07:20:47.631Z,3.60
2019-03-28T07:23:17.838Z,3.70
2019-03-28T07:25:47.138Z,3.80
2019-03-28T07:28:16.438Z,3.90
2019-03-28T07:30:45.739Z,4.00
2019-03-28T07:33:15.039Z,4.10
2019-03-28T07:35:45.013Z,4.20
2019-03-28T07:38:14.254Z,4.20
2019-03-28T07:40:43.557Z,4.20
2019-03-28T07:43:12.859Z,4.30
2019-03-28T07:45:41.905Z,4.50
2019-03-28T07:48:10.898Z,4.60
2019-03-28T07:50:42.446Z,4.80
2019-03-28T07:53:10.671Z,4.90
2019-03-28T07:55:39.974Z,5.00
2019-03-28T07:58:09.433Z,5.10
2019-03-28T08:00:38.573Z,5.20
2019-03-28T08:03:07.875Z,5.10
2019-03-28T08:05:36.921Z,5.20
2019-03-28T08:08:05.913Z,5.30
2019-03-28T08:10:35.160Z,5.30
2019-03-28T08:13:04.460Z,5.30
2019-03-28T08:15:33.761Z,5.20
2019-03-28T08:18:03.062Z,5.30
2019-03-28T08:20:32.931Z,5.40
2019-03-28T08:23:02.890Z,5.40
2019-03-28T08:25:32.190Z,5.60
2019-03-28T08:28:01.799Z,5.50
2019-03-28T08:30:36.321Z,5.50
2019-03-28T08:33:07.466Z,5.60
2019-03-28T08:35:37.689Z,5.80
2019-03-28T08:38:09.978Z,6.10
2019-03-28T08:40:43.758Z,6.10
2019-03-28T08:43:13.571Z,5.90
2019-03-28T08:45:42.881Z,6.00
2019-03-28T08:48:12.188Z,6.10
2019-03-28T08:50:41.476Z,6.20
2019-03-28T08:53:10.777Z,6.40
2019-03-28T08:55:40.081Z,6.60
2019-03-28T08:58:09.378Z,6.60
2019-03-28T09:00:51.154Z,6.70
2019-03-28T09:03:09.515Z,6.80
2019-03-28T09:05:38.816Z,6.90
2019-03-28T09:08:07.966Z,7.00
2019-03-28T09:10:38.648Z,7.20
2019-03-28T09:13:07.948Z,7.40
2019-03-28T09:15:43.633Z,7.70
2019-03-28T09:18:07.785Z,7.90
2019-03-28T09:20:37.077Z,8.10
2019-03-28T09:23:06.376Z,8.20
2019-03-28T09:25:36.597Z,8.20
2019-03-28T09:28:05.688Z,8.20
2019-03-28T09:30:49.343Z,8.30
2019-03-28T09:33:16.174Z,8.40
2019-03-28T09:35:45.564Z,8.60
2019-03-28T09:38:15.081Z,8.70
2019-03-28T09:40:44.383Z,8.80
2019-03-28T09:43:13.681Z,8.80
2019-03-28T09:45:44.210Z,8.70
2019-03-28T09:48:22.115Z,8.50
2019-03-28T09:50:52.954Z,8.30
2019-03-28T09:53:21.030Z,8.40
2019-03-28T09:55:50.324Z,8.30
2019-03-28T09:58:21.411Z,8.40
2019-03-28T10:01:02.082Z,8.50
2019-03-28T10:03:20.127Z,8.60
2019-03-28T10:05:49.367Z,8.70
2019-03-28T10:08:18.669Z,8.90
2019-03-28T10:10:48.873Z,8.90
2019-03-28T10:13:18.500Z,8.90
2019-03-28T10:18:50.276Z,9.10
2019-03-28T10:21:26.661Z,9.10
2019-03-28T10:23:55.948Z,9.20
2019-03-28T10:26:26.062Z,9.30
2019-03-28T10:28:55.163Z,9.20
2019-03-28T10:31:24.502Z,9.10
2019-03-28T10:33:54.066Z,9.10
2019-03-28T10:36:27.589Z,9.10
2019-03-28T10:39:02.396Z,9.20
2019-03-28T10:41:32.960Z,9.20
2019-03-28T10:44:04.878Z,9.10
2019-03-28T10:46:34.101Z,9.10
2019-03-28T10:49:03.386Z,9.10
2019-03-28T10:51:33.597Z,9.20
2019-03-28T10:54:02.603Z,9.10
2019-03-28T10:56:52.293Z,9.10
2019-03-28T10:59:23.818Z,9.10
2019-03-28T11:01:51.631Z,9.00
2019-03-28T11:04:21.000Z,9.00
2019-03-28T11:06:50.311Z,9.10
2019-03-28T11:09:29.432Z,9.20
2019-03-28T11:11:58.732Z,9.30
2019-03-28T11:14:28.032Z,9.50
2019-03-28T11:16:57.333Z,9.70
2019-03-28T11:19:26.385Z,10.00
2019-03-28T11:21:55.626Z,10.20
2019-03-28T11:24:24.936Z,10.30
2019-03-28T11:26:54.227Z,10.40
2019-03-28T11:29:23.527Z,10.40
2019-03-28T11:31:52.798Z,10.50
2019-03-28T11:34:22.435Z,10.50
2019-03-28T11:36:51.734Z,10.60
2019-03-28T11:39:21.150Z,10.60
2019-03-28T11:41:54.997Z,10.70
2019-03-28T11:44:24.248Z,10.70
2019-03-28T11:46:53.548Z,10.80
2019-03-28T11:49:27.318Z,10.90
2019-03-28T11:51:56.451Z,11.00
2019-03-28T11:54:25.747Z,11.20
2019-03-28T11:56:55.049Z,11.30
2019-03-28T11:59:24.361Z,11.40
2019-03-28T12:02:00.389Z,11.50
2019-03-28T12:04:24.187Z,11.60
2019-03-28T12:06:53.478Z,11.60
2019-03-28T12:09:22.781Z,11.70
2019-03-28T12:11:53.062Z,11.90
2019-03-28T12:14:22.425Z,12.00
2019-03-28T12:16:51.602Z,12.20
2019-03-28T12:19:20.902Z,12.20
2019-03-28T12:21:50.202Z,12.30
2019-03-28T12:24:19.502Z,12.40
2019-03-28T12:26:48.803Z,12.40
2019-03-28T12:29:18.104Z,12.50
2019-03-28T12:31:47.404Z,12.50
2019-03-28T12:34:16.703Z,12.50
2019-03-28T12:36:46.005Z,12.40
2019-03-28T12:39:16.232Z,12.40
2019-03-28T12:41:45.527Z,12.30
2019-03-28T12:44:14.829Z,12.10
2019-03-28T12:46:44.128Z,12.00
2019-03-28T12:49:13.428Z,12.00
2019-03-28T12:51:45.494Z,11.90
2019-03-28T12:54:14.793Z,11.90
2019-03-28T12:56:44.097Z,11.80
2019-03-28T12:59:13.512Z,11.80
2019-03-28T13:01:43.617Z,11.80
2019-03-28T13:04:12.918Z,11.70
2019-03-28T13:06:42.219Z,11.60
2019-03-28T13:09:11.267Z,11.70
2019-03-28T13:11:40.511Z,11.70
2019-03-28T13:14:09.812Z,11.80
2019-03-28T13:16:39.112Z,11.90
2019-03-28T13:19:08.415Z,11.90
2019-03-28T13:21:37.712Z,12.10
2019-03-28T13:24:07.972Z,12.10
2019-03-28T13:26:37.236Z,12.30
2019-03-28T13:29:06.570Z,12.40
2019-03-28T13:31:35.831Z,12.50
2019-03-28T13:34:05.131Z,12.60
2019-03-28T13:36:34.432Z,12.60
2019-03-28T13:39:04.347Z,12.60
2019-03-28T13:41:38.189Z,12.60
2019-03-28T13:44:12.205Z,12.50
2019-03-28T13:46:41.387Z,12.40
2019-03-28T13:49:10.765Z,12.40
2019-03-28T13:51:40.986Z,12.30
2019-03-28T13:54:10.292Z,12.30
2019-03-28T13:56:39.284Z,12.20
2019-03-28T13:59:08.277Z,12.10
2019-03-28T14:01:37.573Z,12.10
2019-03-28T14:04:06.873Z,12.10
2019-03-28T14:06:36.175Z,12.00
2019-03-28T14:09:07.010Z,11.80
2019-03-28T14:11:35.389Z,11.60
2019-03-28T14:14:04.690Z,11.50
2019-03-28T14:16:33.994Z,11.40
2019-03-28T14:19:03.295Z,11.30
2019-03-28T14:21:32.593Z,11.20
2019-03-28T14:24:01.892Z,11.10
2019-03-28T14:26:32.115Z,11.10
2019-03-28T14:29:01.415Z,11.20
2019-03-28T14:31:30.714Z,11.20
2019-03-28T14:34:00.017Z,11.30
2019-03-28T14:36:29.320Z,11.40
2019-03-28T14:38:59.538Z,11.40
2019-03-28T14:41:28.838Z,11.50
2019-03-28T14:43:58.140Z,11.50
2019-03-28T14:46:27.440Z,11.60
2019-03-28T14:48:56.739Z,11.50
2019-03-28T14:51:26.149Z,11.50
2019-03-28T14:53:55.921Z,11.50
2019-03-28T14:56:26.182Z,11.40
2019-03-28T14:58:58.487Z,11.50
2019-03-28T15:01:28.161Z,11.50
2019-03-28T15:03:57.459Z,11.50
2019-03-28T15:06:26.551Z,11.40
2019-03-28T15:09:22.254Z,11.40
2019-03-28T15:11:51.049Z,11.40
2019-03-28T15:14:19.948Z,11.40
2019-03-28T15:16:49.149Z,11.40
2019-03-28T15:19:18.143Z,11.30
2019-03-28T15:21:47.444Z,11.30
2019-03-28T15:24:17.959Z,11.30
2019-03-28T15:26:49.034Z,11.30
2019-03-28T15:29:18.723Z,11.20
2019-03-28T15:31:48.023Z,11.20
2019-03-28T15:34:17.328Z,11.10
2019-03-28T15:36:46.364Z,11.10
2019-03-28T15:39:15.628Z,11.00
2019-03-28T15:41:44.920Z,10.80
2019-03-28T15:44:14.221Z,10.70
2019-03-28T15:46:43.259Z,10.60
2019-03-28T15:49:12.513Z,10.50
2019-03-28T15:51:41.812Z,10.40
2019-03-28T15:54:11.117Z,10.30
2019-03-28T15:56:40.414Z,10.30
2019-03-28T15:59:09.406Z,10.30
2019-03-28T16:01:38.707Z,10.20
2019-03-28T16:04:07.700Z,10.10
2019-03-28T16:06:36.700Z,10.10
2019-03-28T16:09:07.526Z,10.00
2019-03-28T16:11:35.605Z,10.00
2019-03-28T16:14:04.601Z,9.80
2019-03-28T16:16:33.588Z,9.80
2019-03-28T16:19:02.581Z,9.80
2019-03-28T16:21:31.453Z,9.70
2019-03-28T16:24:00.570Z,9.60
2019-03-28T16:26:29.561Z,9.50
2019-03-28T16:29:03.353Z,9.60
2019-03-28T16:31:32.462Z,9.50
2019-03-28T16:34:07.018Z,9.40
2019-03-28T16:36:31.677Z,9.20
2019-03-28T16:39:00.978Z,9.20
2019-03-28T16:41:37.920Z,9.10
2019-03-28T16:44:07.260Z,9.00
2019-03-28T16:46:37.788Z,9.00
2019-03-28T16:49:08.473Z,9.00
2019-03-28T16:51:37.927Z,8.90
2019-03-28T16:54:07.227Z,8.90
2019-03-28T16:56:36.220Z,8.90
2019-03-28T16:59:05.213Z,8.80
2019-03-28T17:01:34.274Z,8.80
2019-03-28T17:04:03.199Z,8.70
2019-03-28T17:06:35.583Z,8.70
2019-03-28T17:09:07.032Z,8.60
2019-03-28T17:11:36.025Z,8.50
2019-03-28T17:14:05.018Z,8.60
2019-03-28T17:16:39.840Z,8.60
2019-03-28T17:19:08.832Z,8.50
2019-03-28T17:21:39.810Z,8.50
2019-03-28T17:24:09.583Z,8.60
2019-03-28T17:26:38.663Z,8.60
2019-03-28T17:29:07.659Z,8.50
2019-03-28T17:31:38.210Z,8.50
2019-03-28T17:34:07.407Z,8.30
2019-03-28T17:36:36.707Z,8.30
2019-03-28T17:39:06.922Z,8.30
2019-03-28T17:41:36.235Z,8.20
2019-03-28T17:44:05.523Z,8.10
2019-03-28T17:46:34.824Z,8.10
2019-03-28T17:49:04.124Z,8.10
2019-03-28T17:51:33.227Z,8.10
2019-03-28T17:54:02.419Z,8.10
2019-03-28T17:56:31.718Z,8.10
2019-03-28T17:59:01.018Z,8.10
2019-03-28T18:01:30.319Z,8.00
2019-03-28T18:03:59.619Z,7.80
2019-03-28T18:06:28.906Z,7.80
2019-03-28T18:08:58.220Z,7.70
2019-03-28T18:11:27.214Z,7.60
2019-03-28T18:13:57.732Z,7.60
2019-03-28T18:16:26.736Z,7.60
2019-03-28T18:18:55.609Z,7.70
2019-03-28T18:21:24.722Z,7.70
2019-03-28T18:23:53.718Z,7.70
2019-03-28T18:26:22.708Z,7.70
2019-03-28T18:28:51.989Z,7.70
2019-03-28T18:31:21.006Z,7.60
2019-03-28T18:33:49.995Z,7.60
2019-03-28T18:36:18.989Z,7.60
2019-03-28T18:38:47.982Z,7.60
2019-03-28T18:41:17.283Z,7.60
2019-03-28T18:43:46.276Z,7.60
2019-03-28T18:46:15.557Z,7.50
2019-03-28T18:48:44.572Z,7.50
2019-03-28T18:51:13.869Z,7.50
2019-03-28T18:53:43.163Z,7.50
2019-03-28T18:56:12.473Z,7.30
2019-03-28T18:58:41.773Z,7.20
2019-03-28T19:01:11.075Z,7.10
2019-03-28T19:03:40.372Z,7.10
2019-03-28T19:06:09.672Z,7.20
2019-03-28T19:08:38.973Z,7.20
2019-03-28T19:11:08.278Z,7.20
2019-03-28T19:13:47.133Z,7.20
2019-03-28T19:16:30.136Z,7.20
2019-03-28T19:18:59.981Z,7.20
2019-03-28T19:21:29.438Z,7.20
2019-03-28T19:23:58.517Z,7.10
2019-03-28T19:26:27.527Z,7.00
2019-03-28T19:28:56.724Z,7.00
2019-03-28T19:31:26.023Z,6.80
2019-03-28T19:33:56.247Z,6.80
2019-03-28T19:36:26.161Z,6.70
2019-03-28T19:38:56.076Z,6.70
2019-03-28T19:41:25.379Z,6.60
2019-03-28T19:43:55.293Z,6.60
2019-03-28T19:46:24.595Z,6.50
2019-03-28T19:48:53.891Z,6.50
2019-03-28T19:51:23.192Z,6.50
2019-03-28T19:53:52.493Z,6.50
2019-03-28T19:56:21.793Z,6.40
2019-03-28T19:58:51.094Z,6.40
2019-03-28T20:01:20.394Z,6.20
2019-03-28T20:03:52.376Z,6.10
2019-03-28T20:06:22.690Z,6.10
2019-03-28T20:08:51.981Z,6.10
2019-03-28T20:11:21.228Z,6.00
2019-03-28T20:13:50.683Z,5.90
2019-03-28T20:16:19.884Z,5.90
2019-03-28T20:18:49.182Z,5.90
2019-03-28T20:21:18.485Z,5.80
2019-03-28T20:23:49.321Z,5.70
2019-03-28T20:26:19.705Z,5.70
2019-03-28T20:28:48.537Z,5.70
2019-03-28T20:31:17.836Z,5.70
2019-03-28T20:33:47.136Z,5.70
2019-03-28T20:36:36.275Z,5.70
2019-03-28T20:41:37.772Z,5.60
2019-03-28T20:44:06.690Z,5.60
2019-03-28T20:46:40.797Z,5.50
2019-03-28T20:49:13.821Z,5.50
2019-03-28T20:51:47.875Z,5.40
2019-03-28T20:54:17.176Z,5.40
2019-03-28T20:56:46.478Z,5.40
2019-03-28T20:59:15.473Z,5.40
2019-03-28T21:01:46.001Z,5.40
2019-03-28T21:04:32.537Z,5.30
2019-03-28T21:07:01.497Z,5.30
2019-03-28T21:09:31.721Z,5.30
2019-03-28T21:12:01.018Z,5.30
2019-03-28T21:14:30.319Z,5.20
2019-03-28T21:16:59.620Z,5.20
2019-03-28T21:19:28.921Z,5.10
2019-03-28T21:21:58.221Z,5.10
2019-03-28T21:24:27.521Z,5.10
2019-03-28T21:26:56.515Z,5.00
2019-03-28T21:29:25.816Z,5.00
2019-03-28T21:31:55.115Z,4.90
2019-03-28T21:34:24.421Z,4.90
2019-03-28T21:36:53.719Z,4.90
2019-03-28T21:39:25.782Z,4.90
2019-03-28T21:41:55.084Z,4.90
2019-03-28T21:44:24.382Z,4.90
2019-03-28T21:46:53.685Z,4.80
2019-03-28T21:49:22.982Z,4.70
2019-03-28T21:51:52.284Z,4.70
2019-03-28T21:54:21.585Z,4.70
2019-03-28T21:56:50.885Z,4.60
2019-03-28T21:59:20.984Z,4.60
2019-03-28T22:01:50.792Z,4.60
2019-03-28T22:04:20.321Z,4.60
2019-03-28T22:06:49.624Z,4.60
2019-03-28T22:09:18.922Z,4.60
2019-03-28T22:11:48.222Z,4.60
2019-03-28T22:14:17.524Z,4.60
2019-03-28T22:16:46.826Z,4.60
2019-03-28T22:19:15.818Z,4.60
2019-03-28T22:21:44.911Z,4.60
2019-03-28T22:24:14.117Z,4.50
2019-03-28T22:26:45.895Z,4.60
2019-03-28T22:29:13.960Z,4.60
2019-03-28T22:31:43.025Z,4.50
2019-03-28T22:34:12.235Z,4.60
2019-03-28T22:36:41.537Z,4.60
2019-03-28T22:39:12.167Z,4.50
2019-03-28T22:41:41.978Z,4.50
2019-03-28T22:44:14.153Z,4.50
2019-03-28T22:46:43.037Z,4.50
2019-03-28T22:49:12.338Z,4.50
2019-03-28T22:51:41.640Z,4.50
2019-03-28T22:54:10.940Z,4.50
2019-03-28T22:56:40.244Z,4.50
2019-03-28T22:59:09.313Z,4.50
2019-03-28T23:01:38.534Z,4.40
2019-03-28T23:04:07.621Z,4.40
2019-03-28T23:06:37.745Z,4.40
2019-03-28T23:09:07.666Z,4.30
2019-03-28T23:11:39.110Z,4.30
2019-03-28T23:14:07.495Z,4.30
2019-03-28T23:16:36.795Z,4.30
2019-03-28T23:19:06.018Z,4.40
2019-03-28T23:21:35.703Z,4.30
2019-03-28T23:24:05.003Z,4.30
2019-03-28T23:26:34.826Z,4.30
2019-03-28T23:29:04.524Z,4.30
2019-03-28T23:31:33.825Z,4.20
2019-03-28T23:34:02.817Z,4.20
2019-03-28T23:36:32.788Z,4.10
2019-03-28T23:39:03.269Z,4.20
2019-03-28T23:41:32.565Z,4.10
2019-03-28T23:44:01.976Z,4.10
2019-03-28T23:46:31.779Z,4.10
2019-03-28T23:49:01.083Z,4.10
2019-03-28T23:51:30.378Z,4.10
2019-03-28T23:54:00.227Z,4.10
2019-03-28T23:56:29.594Z,4.10
2019-03-28T23:58:58.894Z,4.00
